• Join FlightAware (Why Join?)
  • Login
  • US Flag 
08:35AM EDT


 

Airport Tracker/Info


-or-


 

Live Flight TrackerFlight Track Log ✈ N57870 ✈ 28-Apr-2013 ✈ PHKO / KOA - KSFO

Flight Track Log - Related Links

Times and Time Zones

All times are in EDT time to prevent confusion due to time zone crossing. See the N57870 flight status page for this flight to view local times or setup timezone preferences in your user account.

Time Position Orientation Groundspeed Altitude Reporting Facility
EDT Latitude Longitude Course Direction KTS MPH feet Rate Location/Type
06:59PM 19.7380 -159.3150 280° West 21 24  Level FlightAware
07:09PM 19.7300 -159.3170 267° West 60 Level FlightAware
07:11PM 19.7240 -159.2590 96° East 180 Level FlightAware
07:13PM 19.8542 -159.0765 53° Northeast  Level Estimated
07:14PM 19.9264 -158.9750 53° Northeast  Level Estimated
07:14PM 19.7240 -156.0470 53° Northeast  Level FlightAware
07:14PM 19.7270 -156.0470 360° North 960 Level FlightAware
07:15PM 19.7420 -156.0450 North 1,200 Level FlightAware
07:15PM 19.7700 -156.0440 North 185 213 1,200 1,260 Climbing FlightAware
07:16PM 19.8030 -156.0430 North 196 226 1,500 1,500 Climbing FlightAware
07:16PM 19.8000 -156.0333 52° Northeast 230 265 2,300 3,000 Climbing Honolulu Center
07:16PM 19.8450 -156.0420 North 246 283 3,000 1,800 Climbing FlightAware
07:17PM 19.8810 -156.0420 360° North 246 283 4,200 1,920 Climbing FlightAware
07:18PM 19.9510 -156.0350 North 282 325 5,900 1,860 Climbing FlightAware
07:18PM 19.9500 -156.0167 North 320 368 6,000 300 Climbing Honolulu Center
07:18PM 19.9700 -156.0120 49° Northeast 282 325 6,000  Level FlightAware
07:19PM 19.9910 -155.9910 43° Northeast 282 325 6,000 120 Level FlightAware
07:19PM 19.9833 -155.9500 62° Northeast 270 311 6,100 1,740 Climbing Honolulu Center
07:20PM 20.0333 -155.8833 51° Northeast 290 334 8,300 2,040 Climbing Honolulu Center
07:21PM 20.1413 -155.7893 52° Northeast  Level Estimated
07:21PM 20.1000 -155.8167 43° Northeast 310 357 10,200  Level Honolulu Center
07:22PM 20.1833 -155.7833 21° North 350 403 11,600 1,500 Climbing Honolulu Center
07:23PM 20.2833 -155.7500 17° North 380 437 13,200 1,440 Climbing Honolulu Center
07:24PM 20.3833 -155.7000 25° Northeast 410 472 14,500 1,200 Climbing Honolulu Center
07:25PM 20.5000 -155.6667 15° North 420 483 15,700 1,380 Climbing Honolulu Center
07:26PM 20.6167 -155.6000 28° Northeast 450 518 17,300 1,560 Climbing Honolulu Center
07:27PM 20.7333 -155.5667 15° North 450 518 18,900 1,500 Climbing Honolulu Center
07:28PM 20.8500 -155.5167 22° Northeast 460 529 20,300 1,380 Climbing Honolulu Center
07:29PM 20.9833 -155.4667 19° North 460 529 21,700 1,200 Climbing Honolulu Center
07:30PM 21.1000 -155.4167 22° Northeast 470 541 22,800 1,080 Climbing Honolulu Center
07:31PM 21.2333 -155.3667 19° North 480 552 23,900 900 Climbing Honolulu Center
07:32PM 21.3500 -155.3167 22° Northeast 490 564 24,700 960 Climbing Honolulu Center
07:33PM 21.4833 -155.2667 19° North 500 575 25,900 1,200 Climbing Honolulu Center
07:34PM 21.6167 -155.2167 19° North 500 575 27,100 1,200 Climbing Honolulu Center
07:35PM 21.7500 -155.1500 25° Northeast 500 575 28,400 1,320 Climbing Honolulu Center
07:36PM 21.8833 -155.1000 19° North 490 564 29,800 1,380 Climbing Honolulu Center
07:37PM 22.0000 -155.0500 22° Northeast 480 552 31,200 1,080 Climbing Honolulu Center
07:38PM 22.1333 -155.0000 19° North 480 552 32,000 360 Climbing Honolulu Center
07:39PM 22.2500 -154.9500 22° Northeast 480 552 32,000  Level Honolulu Center
07:40PM 22.3500 -154.8500 43° Northeast 490 564 32,000  Level Honolulu Center
07:41PM 22.4500 -154.7500 43° Northeast 480 552 32,000  Level Honolulu Center
07:42PM 22.5500 -154.6333 47° Northeast 490 564 32,000  Level Honolulu Center
07:44PM 22.6668 -154.4588 54° Northeast  Level Estimated
07:51PM 23.1705 -153.6994 54° Northeast  Level Estimated
07:52PM 23.2422 -153.5904 54° Northeast  Level Estimated
07:53PM 23.3138 -153.4814 54° Northeast  Level Estimated
07:54PM 23.3853 -153.3722 54° Northeast  Level Estimated
07:55PM 23.4567 -153.2629 55° Northeast  Level Estimated
07:56PM 23.5281 -153.1535 55° Northeast  Level Estimated
07:56PM 23.7833 -153.3667 57° Northeast 470 541 32,000  Level Oakland Oceanic (ODAPS)
07:57PM 23.5994 -153.0440 55° Northeast  Level Estimated
07:58PM 23.6706 -152.9343 55° Northeast  Level Estimated
07:59PM 23.7417 -152.8245 55° Northeast  Level Estimated
08:00PM 23.8127 -152.7146 55° Northeast  Level Estimated
08:01PM 23.8837 -152.6046 55° Northeast  Level Estimated
08:02PM 23.9543 -152.4950 55° Northeast  Level Estimated
08:03PM 24.4229 -152.2854 57° Northeast 470 541 32,000  Level FlightAware Transoceanic
08:04PM 24.4934 -152.1646 57° Northeast 470 541 32,000  Level FlightAware Transoceanic
08:05PM 24.5639 -152.0436 57° Northeast 470 541 32,000  Level FlightAware Transoceanic
08:06PM 24.6343 -151.9225 57° Northeast 470 541 32,000  Level FlightAware Transoceanic
08:07PM 24.7046 -151.8013 57° Northeast 470 541 32,000  Level FlightAware Transoceanic
08:08PM 24.7748 -151.6800 58° Northeast 470 541 32,000  Level FlightAware Transoceanic
08:09PM 24.8449 -151.5585 58° Northeast 470 541 32,000  Level FlightAware Transoceanic
08:10PM 24.9149 -151.4368 58° Northeast 470 541 32,000  Level FlightAware Transoceanic
08:11PM 24.9848 -151.3151 58° Northeast 470 541 32,000  Level FlightAware Transoceanic
08:12PM 25.0546 -151.1932 58° Northeast 470 541 32,000  Level FlightAware Transoceanic
08:13PM 25.1243 -151.0711 58° Northeast 470 541 32,000  Level FlightAware Transoceanic
08:14PM 25.1939 -150.9489 58° Northeast 470 541 32,000  Level FlightAware Transoceanic
08:15PM 25.2634 -150.8266 58° Northeast 470 541 32,000  Level FlightAware Transoceanic
08:16PM 25.3328 -150.7041 58° Northeast 470 541 32,000  Level FlightAware Transoceanic
08:17PM 25.4021 -150.5815 58° Northeast 470 541 32,000  Level FlightAware Transoceanic
08:18PM 25.4713 -150.4588 58° Northeast 470 541 32,000  Level FlightAware Transoceanic
08:19PM 25.5404 -150.3359 58° Northeast 470 541 32,000  Level FlightAware Transoceanic
08:20PM 25.6094 -150.2129 58° Northeast 470 541 32,000  Level FlightAware Transoceanic
08:21PM 25.6783 -150.0897 58° Northeast 470 541 32,000  Level FlightAware Transoceanic
08:22PM 25.7471 -149.9664 58° Northeast 470 541 32,000  Level FlightAware Transoceanic
08:23PM 25.8158 -149.8429 58° Northeast 470 541 32,000  Level FlightAware Transoceanic
08:24PM 25.8844 -149.7193 58° Northeast 470 541 32,000  Level FlightAware Transoceanic
08:25PM 25.9528 -149.5956 58° Northeast 470 541 32,000  Level FlightAware Transoceanic
08:26PM 26.0212 -149.4717 58° Northeast 470 541 32,000  Level FlightAware Transoceanic
08:27PM 26.0895 -149.3477 59° Northeast 470 541 32,000  Level FlightAware Transoceanic
08:28PM 26.1576 -149.2235 59° Northeast 470 541 32,000  Level FlightAware Transoceanic
08:29PM 26.2257 -149.0992 59° Northeast 470 541 32,000  Level FlightAware Transoceanic
08:30PM 26.2936 -148.9747 59° Northeast 470 541 32,000  Level FlightAware Transoceanic
08:31PM 26.3615 -148.8501 59° Northeast 470 541 32,000  Level FlightAware Transoceanic
08:32PM 26.4292 -148.7253 59° Northeast 470 541 32,000  Level FlightAware Transoceanic
08:33PM 26.4968 -148.6004 59° Northeast 470 541 32,000  Level FlightAware Transoceanic
08:34PM 26.5643 -148.4754 59° Northeast 470 541 32,000  Level FlightAware Transoceanic
08:35PM 26.6317 -148.3502 59° Northeast 470 541 32,000  Level FlightAware Transoceanic
08:36PM 26.6990 -148.2248 59° Northeast 470 541 32,000  Level FlightAware Transoceanic
08:37PM 26.7662 -148.0993 59° Northeast 470 541 32,000  Level FlightAware Transoceanic
08:38PM 26.8333 -147.9737 59° Northeast 470 541 32,000  Level FlightAware Transoceanic
08:39PM 26.9002 -147.8479 59° Northeast 470 541 32,000  Level FlightAware Transoceanic
08:40PM 26.9671 -147.7219 59° Northeast 470 541 32,000  Level FlightAware Transoceanic
08:41PM 27.0338 -147.5958 59° Northeast 470 541 32,000  Level FlightAware Transoceanic
08:42PM 27.1004 -147.4696 59° Northeast 470 541 32,000  Level FlightAware Transoceanic
08:43PM 27.1669 -147.3432 59° Northeast 470 541 32,000  Level FlightAware Transoceanic
08:44PM 27.2333 -147.2167 64° Northeast 470 541 32,000  Level FlightAware Transoceanic
08:45PM 27.2887 -147.0886 64° Northeast 470 541 32,000  Level FlightAware Transoceanic
08:46PM 27.3440 -146.9603 64° Northeast 470 541 32,000  Level FlightAware Transoceanic
08:46PM 27.2333 -147.2167 64° Northeast 465 535 32,000  Level Oakland Oceanic (ODAPS)
08:47PM 27.3992 -146.8320 64° Northeast 470 541 32,000  Level FlightAware Transoceanic
08:48PM 27.4542 -146.7035 64° Northeast 470 541 32,000  Level FlightAware Transoceanic
08:49PM 27.5091 -146.5749 64° Northeast 470 541 32,000  Level FlightAware Transoceanic
08:50PM 27.5639 -146.4462 64° Northeast 470 541 32,000  Level FlightAware Transoceanic
08:51PM 27.6186 -146.3173 64° Northeast 470 541 32,000  Level FlightAware Transoceanic
08:52PM 27.6732 -146.1883 65° Northeast 470 541 32,000  Level FlightAware Transoceanic
08:53PM 27.7372 -146.0364 65° Northeast 465 535 32,000  Level FlightAware Transoceanic
08:54PM 27.7926 -145.9046 65° Northeast 465 535 32,000  Level FlightAware Transoceanic
08:55PM 27.8478 -145.7726 65° Northeast 465 535 32,000  Level FlightAware Transoceanic
08:56PM 27.9029 -145.6405 65° Northeast 465 535 32,000  Level FlightAware Transoceanic
08:57PM 27.9579 -145.5083 65° Northeast 465 535 32,000  Level FlightAware Transoceanic
08:58PM 28.0128 -145.3760 65° Northeast 465 535 32,000  Level FlightAware Transoceanic
08:59PM 28.0675 -145.2435 65° Northeast 465 535 32,000  Level FlightAware Transoceanic
09:00PM 28.1221 -145.1109 65° Northeast 465 535 32,000  Level FlightAware Transoceanic
09:01PM 28.1766 -144.9781 65° Northeast 465 535 32,000  Level FlightAware Transoceanic
09:02PM 28.2310 -144.8452 65° Northeast 465 535 32,000  Level FlightAware Transoceanic
09:03PM 28.2852 -144.7122 65° Northeast 465 535 32,000  Level FlightAware Transoceanic
09:04PM 28.3393 -144.5790 65° Northeast 465 535 32,000  Level FlightAware Transoceanic
09:05PM 28.3933 -144.4457 65° Northeast 465 535 32,000  Level FlightAware Transoceanic
09:06PM 28.4471 -144.3123 65° Northeast 465 535 32,000  Level FlightAware Transoceanic
09:07PM 28.5008 -144.1787 65° Northeast 465 535 32,000  Level FlightAware Transoceanic
09:08PM 28.5544 -144.0450 66° East 465 535 32,000  Level FlightAware Transoceanic
09:09PM 28.6078 -143.9112 66° East 465 535 32,000  Level FlightAware Transoceanic
09:10PM 28.6611 -143.7772 66° East 465 535 32,000  Level FlightAware Transoceanic
09:11PM 28.7143 -143.6431 66° East 465 535 32,000  Level FlightAware Transoceanic
09:12PM 28.7674 -143.5088 66° East 465 535 32,000  Level FlightAware Transoceanic
09:13PM 28.8203 -143.3745 66° East 465 535 32,000  Level FlightAware Transoceanic
09:14PM 28.8731 -143.2399 66° East 465 535 32,000  Level FlightAware Transoceanic
09:15PM 28.9257 -143.1053 66° East 465 535 32,000  Level FlightAware Transoceanic
09:16PM 28.9783 -142.9705 66° East 465 535 32,000  Level FlightAware Transoceanic
09:17PM 29.0306 -142.8356 66° East 465 535 32,000  Level FlightAware Transoceanic
09:18PM 29.0829 -142.7005 66° East 465 535 32,000  Level FlightAware Transoceanic
09:19PM 29.1350 -142.5653 66° East 465 535 32,000  Level FlightAware Transoceanic
09:20PM 29.1870 -142.4299 66° East 465 535 32,000  Level FlightAware Transoceanic
09:21PM 29.2388 -142.2945 66° East 465 535 32,000  Level FlightAware Transoceanic
09:22PM 29.2905 -142.1588 66° East 465 535 32,000  Level FlightAware Transoceanic
09:23PM 29.3421 -142.0231 66° East 465 535 32,000  Level FlightAware Transoceanic
09:24PM 29.3935 -141.8872 67° East 465 535 32,000  Level FlightAware Transoceanic
09:25PM 29.4448 -141.7512 67° East 465 535 32,000  Level FlightAware Transoceanic
09:26PM 29.4959 -141.6150 67° East 465 535 32,000  Level FlightAware Transoceanic
09:27PM 29.5469 -141.4787 67° East 465 535 32,000  Level FlightAware Transoceanic
09:28PM 29.5978 -141.3423 67° East 465 535 32,000  Level FlightAware Transoceanic
09:29PM 29.6486 -141.2057 67° East 465 535 32,000  Level FlightAware Transoceanic
09:30PM 29.6992 -141.0690 67° East 465 535 32,000  Level FlightAware Transoceanic
09:31PM 29.7496 -140.9321 67° East 465 535 32,000  Level FlightAware Transoceanic
09:32PM 29.7999 -140.7951 67° East 465 535 32,000  Level FlightAware Transoceanic
09:33PM 29.8501 -140.6580 67° East 465 535 32,000  Level FlightAware Transoceanic
09:34PM 29.9001 -140.5207 67° East 465 535 32,000  Level FlightAware Transoceanic
09:35PM 29.9500 -140.3833 69° East 465 535 32,000  Level FlightAware Transoceanic
09:36PM 29.9958 -140.2442 69° East 465 535 32,000  Level FlightAware Transoceanic
09:37PM 30.0415 -140.1049 69° East 465 535 32,000  Level FlightAware Transoceanic
09:38PM 30.0870 -139.9655 69° East 465 535 32,000  Level FlightAware Transoceanic
09:39PM 30.1324 -139.8259 69° East 465 535 32,000  Level FlightAware Transoceanic
09:39PM 29.9500 -140.3833 69° East 465 535 32,000  Level Oakland Oceanic (ODAPS)
09:40PM 30.1776 -139.6862 70° East 465 535 32,000  Level FlightAware Transoceanic
09:41PM 30.2227 -139.5464 70° East 465 535 32,000  Level FlightAware Transoceanic
09:42PM 30.2676 -139.4065 70° East 465 535 32,000  Level FlightAware Transoceanic
09:43PM 30.3123 -139.2664 70° East 465 535 32,000  Level FlightAware Transoceanic
09:44PM 30.3570 -139.1263 70° East 465 535 32,000  Level FlightAware Transoceanic
09:45PM 30.4015 -138.9859 70° East 465 535 32,000  Level FlightAware Transoceanic
09:46PM 30.4015 -138.9859 70° East 465 535 32,000  Level FlightAware Transoceanic
09:47PM 30.4458 -138.8455 70° East 465 535 32,000  Level FlightAware Transoceanic
09:48PM 30.4900 -138.7049 70° East 465 535 32,000  Level FlightAware Transoceanic
09:49PM 30.5340 -138.5642 70° East 465 535 32,000  Level FlightAware Transoceanic
09:50PM 30.5779 -138.4234 70° East 465 535 32,000  Level FlightAware Transoceanic
09:51PM 30.6216 -138.2825 70° East 465 535 32,000  Level FlightAware Transoceanic
09:52PM 30.6651 -138.1414 70° East 465 535 32,000  Level FlightAware Transoceanic
09:53PM 30.7086 -138.0002 70° East 465 535 32,000  Level FlightAware Transoceanic
09:54PM 30.7518 -137.8588 70° East 465 535 32,000  Level FlightAware Transoceanic
09:55PM 30.7950 -137.7174 71° East 465 535 32,000  Level FlightAware Transoceanic
09:56PM 30.8379 -137.5758 71° East 465 535 32,000  Level FlightAware Transoceanic
09:57PM 30.8807 -137.4341 71° East 465 535 32,000  Level FlightAware Transoceanic
09:58PM 30.9234 -137.2922 71° East 465 535 32,000  Level FlightAware Transoceanic
09:59PM 30.9659 -137.1503 71° East 465 535 32,000  Level FlightAware Transoceanic
10:00PM 31.0082 -137.0082 71° East 465 535 32,000  Level FlightAware Transoceanic
10:01PM 31.0504 -136.8660 71° East 465 535 32,000  Level FlightAware Transoceanic
10:02PM 31.0924 -136.7236 71° East 465 535 32,000  Level FlightAware Transoceanic
10:03PM 31.1343 -136.5811 71° East 465 535 32,000  Level FlightAware Transoceanic
10:04PM 31.1760 -136.4385 71° East 465 535 32,000  Level FlightAware Transoceanic
10:05PM 31.2175 -136.2958 71° East 465 535 32,000  Level FlightAware Transoceanic
10:06PM 31.2589 -136.1530 71° East 465 535 32,000  Level FlightAware Transoceanic
10:07PM 31.3002 -136.0100 71° East 465 535 32,000  Level FlightAware Transoceanic
10:08PM 31.3413 -135.8669 71° East 465 535 32,000  Level FlightAware Transoceanic
10:09PM 31.3822 -135.7237 72° East 465 535 32,000  Level FlightAware Transoceanic
10:10PM 31.4230 -135.5803 72° East 465 535 32,000  Level FlightAware Transoceanic
10:11PM 31.4636 -135.4369 72° East 465 535 32,000  Level FlightAware Transoceanic
10:12PM 31.5040 -135.2933 72° East 465 535 32,000  Level FlightAware Transoceanic
10:13PM 31.5443 -135.1495 72° East 465 535 32,000  Level FlightAware Transoceanic
10:14PM 31.5844 -135.0057 72° East 465 535 32,000  Level FlightAware Transoceanic
10:15PM 31.6244 -134.8617 72° East 465 535 32,000  Level FlightAware Transoceanic
10:16PM 31.6642 -134.7176 72° East 465 535 32,000  Level FlightAware Transoceanic
10:17PM 31.7038 -134.5734 72° East 465 535 32,000  Level FlightAware Transoceanic
10:18PM 31.7433 -134.4291 72° East 465 535 32,000  Level FlightAware Transoceanic
10:19PM 31.7826 -134.2846 72° East 465 535 32,000  Level FlightAware Transoceanic
10:20PM 31.8217 -134.1400 72° East 465 535 32,000  Level FlightAware Transoceanic
10:21PM 31.8607 -133.9953 72° East 465 535 32,000  Level FlightAware Transoceanic
10:22PM 31.8995 -133.8505 73° East 465 535 32,000  Level FlightAware Transoceanic
10:23PM 31.9382 -133.7056 73° East 465 535 32,000  Level FlightAware Transoceanic
10:24PM 31.9767 -133.5605 73° East 465 535 32,000  Level FlightAware Transoceanic
10:25PM 32.0150 -133.4153 73° East 465 535 32,000  Level FlightAware Transoceanic
10:26PM 32.0532 -133.2700 73° East 465 535 32,000  Level FlightAware Transoceanic
10:27PM 32.0912 -133.1246 73° East 465 535 32,000  Level FlightAware Transoceanic
10:28PM 32.1290 -132.9790 73° East 465 535 32,000  Level FlightAware Transoceanic
10:29PM 32.1667 -132.8333 59° Northeast 465 535 32,000  Level FlightAware Transoceanic
10:30PM 32.2341 -132.6992 59° Northeast 465 535 32,000  Level FlightAware Transoceanic
10:30PM 32.1667 -132.8333 59° Northeast 475 547 32,000  Level Oakland Oceanic (ODAPS)
10:31PM 32.3014 -132.5648 59° Northeast 465 535 32,000  Level FlightAware Transoceanic
10:32PM 32.3686 -132.4302 59° Northeast 465 535 32,000  Level FlightAware Transoceanic
10:33PM 32.4357 -132.2955 60° Northeast 465 535 32,000  Level FlightAware Transoceanic
10:34PM 32.5025 -132.1605 60° Northeast 465 535 32,000  Level FlightAware Transoceanic
10:35PM 32.5693 -132.0253 60° Northeast 465 535 32,000  Level FlightAware Transoceanic
10:36PM 32.7024 -131.7543 60° Northeast 475 547 32,000  Level FlightAware Transoceanic
10:37PM 32.7687 -131.6186 60° Northeast 475 547 32,000  Level FlightAware Transoceanic
10:38PM 32.8348 -131.4826 60° Northeast 475 547 32,000  Level FlightAware Transoceanic
10:39PM 32.9008 -131.3464 60° Northeast 475 547 32,000  Level FlightAware Transoceanic
10:40PM 32.9667 -131.2100 60° Northeast 475 547 32,000  Level FlightAware Transoceanic
10:41PM 33.0324 -131.0734 60° Northeast 475 547 32,000  Level FlightAware Transoceanic
10:42PM 33.0980 -130.9366 60° Northeast 475 547 32,000  Level FlightAware Transoceanic
10:43PM 33.1634 -130.7997 60° Northeast 475 547 32,000  Level FlightAware Transoceanic
10:44PM 33.2287 -130.6625 60° Northeast 475 547 32,000  Level FlightAware Transoceanic
10:45PM 33.2938 -130.5251 60° Northeast 475 547 32,000  Level FlightAware Transoceanic
10:46PM 33.3588 -130.3874 61° Northeast 475 547 32,000  Level FlightAware Transoceanic
10:47PM 33.4236 -130.2496 61° Northeast 475 547 32,000  Level FlightAware Transoceanic
10:48PM 33.4883 -130.1116 61° Northeast 475 547 32,000  Level FlightAware Transoceanic
10:49PM 33.5528 -129.9734 61° Northeast 475 547 32,000  Level FlightAware Transoceanic
10:50PM 33.6171 -129.8349 61° Northeast 475 547 32,000  Level FlightAware Transoceanic
10:51PM 33.6813 -129.6963 61° Northeast 475 547 32,000  Level FlightAware Transoceanic
10:52PM 33.7454 -129.5575 61° Northeast 475 547 32,000  Level FlightAware Transoceanic
10:53PM 33.8093 -129.4184 61° Northeast 475 547 32,000  Level FlightAware Transoceanic
10:54PM 33.8730 -129.2791 61° Northeast 475 547 32,000  Level FlightAware Transoceanic
10:55PM 33.9366 -129.1397 61° Northeast 475 547 32,000  Level FlightAware Transoceanic
10:56PM 34.0000 -129.0000 57° Northeast 475 547 32,000  Level FlightAware Transoceanic
10:57PM 34.0711 -128.8691 57° Northeast 475 547 32,000  Level FlightAware Transoceanic
10:58PM 34.1421 -128.7380 57° Northeast 475 547 32,000  Level FlightAware Transoceanic
10:59PM 34.2130 -128.6067 57° Northeast 475 547 32,000  Level FlightAware Transoceanic
11:00PM 34.2837 -128.4752 57° Northeast 475 547 32,000  Level FlightAware Transoceanic
11:01PM 34.3543 -128.3434 57° Northeast 475 547 32,000  Level FlightAware Transoceanic
11:02PM 34.4248 -128.2114 57° Northeast 475 547 32,000  Level FlightAware Transoceanic
11:03PM 34.4950 -128.0792 57° Northeast 475 547 32,000  Level FlightAware Transoceanic
11:03PM 34.0000 -129.0000 57° Northeast 466 536 32,000  Level Oakland Oceanic (ODAPS)
11:04PM 34.5652 -127.9468 57° Northeast 475 547 32,000  Level FlightAware Transoceanic
11:05PM 34.6352 -127.8142 57° Northeast 475 547 32,000  Level FlightAware Transoceanic
11:06PM 34.7051 -127.6813 57° Northeast 475 547 32,000  Level FlightAware Transoceanic
11:07PM 34.7748 -127.5482 58° Northeast 475 547 32,000  Level FlightAware Transoceanic
11:08PM 34.8444 -127.4149 58° Northeast 475 547 32,000  Level FlightAware Transoceanic
11:09PM 34.9138 -127.2813 58° Northeast 466 536 32,000  Level FlightAware Transoceanic
11:10PM 34.9831 -127.1475 58° Northeast 466 536 32,000  Level FlightAware Transoceanic
11:11PM 35.0522 -127.0135 58° Northeast 466 536 32,000  Level FlightAware Transoceanic
11:12PM 35.1212 -126.8793 58° Northeast 466 536 32,000  Level FlightAware Transoceanic
11:13PM 35.1901 -126.7449 58° Northeast 466 536 32,000  Level FlightAware Transoceanic
11:14PM 35.2588 -126.6102 58° Northeast 466 536 32,000  Level FlightAware Transoceanic
11:15PM 35.3273 -126.4753 58° Northeast 466 536 32,000  Level FlightAware Transoceanic
11:16PM 35.3957 -126.3401 58° Northeast 466 536 32,000  Level FlightAware Transoceanic
11:17PM 35.4640 -126.2048 58° Northeast 466 536 32,000  Level FlightAware Transoceanic
11:18PM 35.5321 -126.0692 58° Northeast 466 536 32,000  Level FlightAware Transoceanic
11:19PM 35.6000 -125.9333 58° Northeast 466 536 32,000  Level FlightAware Transoceanic
11:20PM 35.6654 -125.8046 58° Northeast 466 536 32,000  Level FlightAware Transoceanic
11:20PM 35.6289 -125.8939 58° Northeast 459 528 32,000  Level Oakland Center
11:21PM 35.7306 -125.6756 58° Northeast 466 536 32,000  Level FlightAware Transoceanic
11:21PM 35.6944 -125.7583 59° Northeast 461 531 32,000  Level Oakland Center
11:22PM 35.7957 -125.5463 58° Northeast 466 536 32,000  Level FlightAware Transoceanic
11:22PM 35.7589 -125.6258 59° Northeast 458 527 32,000  Level Oakland Center
11:23PM 35.8606 -125.4169 58° Northeast 466 536 32,000  Level FlightAware Transoceanic
11:23PM 35.8403 -125.4683 57° Northeast 456 525 32,000  Level Oakland Center
11:24PM 35.9255 -125.2873 58° Northeast 466 536 32,000 -900 Level FlightAware Transoceanic
11:24PM 35.8978 -125.3325 62° Northeast 448 516 31,100  Descending Oakland Center
11:25PM 35.9902 -125.1575 58° Northeast 466 536 32,000 -900 Climbing FlightAware Transoceanic
11:25PM 35.9572 -125.2106 59° Northeast 424 488 30,200 -2,160 Descending Oakland Center
11:26PM 36.0150 -125.0953 58° Northeast 403 464 29,500 -840 Descending Oakland Center
11:27PM 36.0703 -124.9856 58° Northeast 382 440 28,600 -780 Descending Oakland Center
11:28PM 36.1219 -124.8781 59° Northeast 369 425 28,000 -300 Descending Oakland Center
11:29PM 36.1758 -124.7681 59° Northeast 372 428 28,000  Level Oakland Center
11:30PM 36.2361 -124.6628 55° Northeast 374 430 28,000  Level Oakland Center
11:31PM 36.2986 -124.5567 54° Northeast 379 436 28,000  Level Oakland Center
11:32PM 36.3597 -124.4517 54° Northeast 378 435 28,000  Level Oakland Center
11:33PM 36.4228 -124.3456 54° Northeast 381 438 28,000  Level Oakland Center
11:34PM 36.4819 -124.2353 56° Northeast 383 441 28,000  Level Oakland Center
11:35PM 36.5447 -124.1325 53° Northeast 376 433 28,000  Level Oakland Center
11:36PM 36.6161 -124.0044 55° Northeast 376 433 28,000 -360 Level Oakland Center
11:37PM 36.6775 -123.8983 54° Northeast 377 434 27,300 -1,560 Descending Oakland Center
11:43PM 37.1470 -123.4680 54° Northeast 317 365 16,800 -1,680 Descending FlightAware
11:44PM 37.1910 -123.4410 26° Northeast 313 360 16,000 -1,020 Descending FlightAware
11:44PM 37.2460 -123.4070 26° Northeast 310 357 15,500 -360 Descending FlightAware
11:45PM 37.3010 -123.3730 26° Northeast 310 357 15,500  Level FlightAware
11:46PM 37.3440 -123.3460 27° Northeast 310 357 15,500  Level FlightAware
11:47PM 37.3880 -123.3190 26° Northeast 310 357 15,500  Level FlightAware
11:47PM 37.4320 -123.2920 26° Northeast 310 357 15,500  Level FlightAware
11:48PM 37.4760 -123.2660 25° Northeast 310 357 15,500 -1,980 Level FlightAware
11:51PM 37.2800 -122.7690 116° Southeast 293 337 9,000 -2,100 Descending FlightAware
11:51PM 37.2910 -122.7220 74° East 291 335 9,000  Level FlightAware
11:51PM 37.2970 -122.6950 74° East 290 334 9,000  Level FlightAware
11:52PM 37.3090 -122.6450 73° East 291 335 9,000  Level FlightAware
11:52PM 37.3190 -122.6030 73° East 291 335 9,000  Level FlightAware
11:53PM 37.3250 -122.5730 76° East 293 337 9,000 -900 Level FlightAware
11:53PM 37.3430 -122.4950 74° East 291 335 8,100 -840 Descending FlightAware
11:54PM 37.3530 -122.4540 73° East 285 328 8,000 -120 Descending FlightAware
11:54PM 37.3620 -122.4150 74° East 285 328 8,000  Level FlightAware
11:55PM 37.3750 -122.3590 74° East 253 291 8,000  Level FlightAware
11:55PM 37.3820 -122.3260 75° East 240 276 8,000  Level FlightAware
11:55PM 37.3870 -122.3060 73° East 239 275 8,000  Level FlightAware
11:56PM 37.3950 -122.2690 75° East 245 282 8,000 60 Level FlightAware
11:56PM 37.3970 -122.2320 86° East 230 265 8,100 -480 Climbing FlightAware
11:57PM 37.4000 -122.1930 84° East 210 242 7,600 -1,140 Descending FlightAware
11:57PM 37.4110 -122.1670 62° Northeast 202 232 7,100 -1,200 Descending FlightAware
11:58PM 37.4250 -122.1380 59° Northeast 198 228 6,500 -1,200 Descending FlightAware
11:58PM 37.4360 -122.1260 41° Northeast 192 221 6,200 -1,080 Descending FlightAware
11:58PM 37.4540 -122.1150 26° Northeast 182 209 5,800 -1,140 Descending FlightAware
11:59PM 37.4890 -122.1170 357° North 174 200 4,900 -1,140 Descending FlightAware
12:00AM 37.5040 -122.1330 320° Northwest 170 196 4,500 -1,140 Descending FlightAware
12:00AM 37.5210 -122.1500 322° Northwest 170 196 3,900 -1,380 Descending FlightAware
12:00AM 37.5290 -122.1630 308° West 170 196 3,500 -1,380 Descending FlightAware
12:01AM 37.5370 -122.1800 301° West 169 194 3,100 -1,080 Descending FlightAware
12:01AM 37.5430 -122.1960 295° West 165 190 2,800 -840 Descending FlightAware
12:02AM 37.5560 -122.2260 299° West 159 183 2,300 -600 Descending FlightAware
12:03AM 37.5730 -122.2690 297° West 157 181 1,900 -480 Descending FlightAware